Daganzo de Arriba, Spain
Current Conditions -  °F | °C
As of 2:00 AM on Saturday 20 Dec 2014 (Local Time) from LETO Reporting Station
Light Fog Light Fog  
Wind Chill: 36°   Ceiling: Unl
Heat Index: 36°   Visibility: 3mi
Dew Point: 34°   Wind: 1mph
Humidity: 93%   Direction: 30°NNE
Pressure: 30.48"   Gusts: NA
Location:  40.54°N, 3.45°W
Report Text: LETO 200100Z 03001KT 5000 2000SE BCFG NSC 02/01 Q1032 NOSIG
Loading
Personal Weather Stations






























Interactive Weather Map New forecast layout! Learn more

10-Day Weather Forecast

Advertisements
Track Severe Weather on mobile